sensor_id;sensor_type;location;lat;lon;timestamp;P1;durP1;ratioP1;P2;durP2;ratioP2
73747;SDS011;62056;52.130;5.428;2023-09-19T00:00:34;9.75;;;5.20;;
73747;SDS011;62056;52.130;5.428;2023-09-19T00:03:02;14.35;;;6.93;;
73747;SDS011;62056;52.130;5.428;2023-09-19T00:05:33;13.57;;;5.57;;
73747;SDS011;62056;52.130;5.428;2023-09-19T00:08:03;11.53;;;4.77;;
73747;SDS011;62056;52.130;5.428;2023-09-19T00:10:31;12.02;;;4.88;;
73747;SDS011;62056;52.130;5.428;2023-09-19T00:13:02;17.70;;;9.10;;
73747;SDS011;62056;52.130;5.428;2023-09-19T00:15:37;17.55;;;8.32;;
73747;SDS011;62056;52.130;5.428;2023-09-19T00:18:09;10.40;;;5.22;;
73747;SDS011;62056;52.130;5.428;2023-09-19T00:20:36;17.53;;;12.27;;
73747;SDS011;62056;52.130;5.428;2023-09-19T00:23:05;21.58;;;9.95;;
73747;SDS011;62056;52.130;5.428;2023-09-19T00:25:35;14.02;;;7.72;;
73747;SDS011;62056;52.130;5.428;2023-09-19T00:28:04;22.30;;;13.70;;
73747;SDS011;62056;52.130;5.428;2023-09-19T00:30:36;28.30;;;17.63;;
73747;SDS011;62056;52.130;5.428;2023-09-19T00:33:04;19.23;;;11.53;;
73747;SDS011;62056;52.130;5.428;2023-09-19T00:35:34;12.18;;;7.55;;
73747;SDS011;62056;52.130;5.428;2023-09-19T00:38:01;9.07;;;7.50;;
73747;SDS011;62056;52.130;5.428;2023-09-19T00:40:28;22.52;;;3.35;;
73747;SDS011;62056;52.130;5.428;2023-09-19T00:42:59;8.43;;;2.70;;
73747;SDS011;62056;52.130;5.428;2023-09-19T00:45:26;7.63;;;3.33;;
73747;SDS011;62056;52.130;5.428;2023-09-19T00:47:55;5.90;;;3.50;;
73747;SDS011;62056;52.130;5.428;2023-09-19T00:50:24;7.85;;;3.60;;
73747;SDS011;62056;52.130;5.428;2023-09-19T00:52:55;4.53;;;3.33;;
73747;SDS011;62056;52.130;5.428;2023-09-19T00:55:23;5.20;;;4.63;;
73747;SDS011;62056;52.130;5.428;2023-09-19T00:57:51;4.37;;;2.13;;
73747;SDS011;62056;52.130;5.428;2023-09-19T01:00:19;3.60;;;1.42;;
73747;SDS011;62056;52.130;5.428;2023-09-19T01:02:47;2.65;;;1.25;;
73747;SDS011;62056;52.130;5.428;2023-09-19T01:05:15;4.13;;;1.30;;
73747;SDS011;62056;52.130;5.428;2023-09-19T01:07:42;6.38;;;2.40;;
73747;SDS011;62056;52.130;5.428;2023-09-19T01:10:16;2.40;;;2.13;;
73747;SDS011;62056;52.130;5.428;2023-09-19T01:26:30;8.55;;;7.18;;
73747;SDS011;62056;52.130;5.428;2023-09-19T01:31:32;11.80;;;8.45;;
73747;SDS011;62056;52.130;5.428;2023-09-19T01:34:03;9.38;;;5.60;;
73747;SDS011;62056;52.130;5.428;2023-09-19T01:36:35;11.93;;;10.17;;
73747;SDS011;62056;52.130;5.428;2023-09-19T01:39:05;23.00;;;17.00;;
73747;SDS011;62056;52.130;5.428;2023-09-19T01:44:12;15.07;;;10.27;;
73747;SDS011;62056;52.130;5.428;2023-09-19T01:46:48;25.23;;;15.98;;
73747;SDS011;62056;52.130;5.428;2023-09-19T01:49:27;42.30;;;28.93;;
73747;SDS011;62056;52.130;5.428;2023-09-19T01:54:48;25.02;;;16.67;;
73747;SDS011;62056;52.130;5.428;2023-09-19T01:59:50;11.43;;;7.95;;
73747;SDS011;62056;52.130;5.428;2023-09-19T02:02:21;14.80;;;10.37;;
73747;SDS011;62056;52.130;5.428;2023-09-19T02:04:49;8.85;;;6.72;;
73747;SDS011;62056;52.130;5.428;2023-09-19T02:07:17;9.48;;;5.78;;
73747;SDS011;62056;52.130;5.428;2023-09-19T02:09:45;6.22;;;3.20;;
73747;SDS011;62056;52.130;5.428;2023-09-19T02:12:11;12.45;;;3.53;;
73747;SDS011;62056;52.130;5.428;2023-09-19T02:14:39;4.90;;;3.37;;
73747;SDS011;62056;52.130;5.428;2023-09-19T02:17:06;6.55;;;2.58;;
73747;SDS011;62056;52.130;5.428;2023-09-19T02:19:34;13.57;;;9.68;;
73747;SDS011;62056;52.130;5.428;2023-09-19T02:22:00;11.85;;;6.43;;
73747;SDS011;62056;52.130;5.428;2023-09-19T02:24:33;16.63;;;14.13;;
73747;SDS011;62056;52.130;5.428;2023-09-19T02:27:04;9.07;;;2.97;;
73747;SDS011;62056;52.130;5.428;2023-09-19T02:29:32;8.80;;;3.47;;
73747;SDS011;62056;52.130;5.428;2023-09-19T02:32:00;8.82;;;3.10;;
73747;SDS011;62056;52.130;5.428;2023-09-19T02:34:28;9.13;;;5.93;;
73747;SDS011;62056;52.130;5.428;2023-09-19T02:36:55;6.15;;;5.05;;
73747;SDS011;62056;52.130;5.428;2023-09-19T02:39:22;11.20;;;3.87;;
73747;SDS011;62056;52.130;5.428;2023-09-19T02:41:49;7.75;;;3.47;;
73747;SDS011;62056;52.130;5.428;2023-09-19T02:44:16;16.05;;;9.45;;
73747;SDS011;62056;52.130;5.428;2023-09-19T02:46:43;11.05;;;4.68;;
73747;SDS011;62056;52.130;5.428;2023-09-19T02:49:10;9.90;;;5.88;;
73747;SDS011;62056;52.130;5.428;2023-09-19T02:51:37;6.77;;;3.07;;
73747;SDS011;62056;52.130;5.428;2023-09-19T02:54:04;5.57;;;3.28;;
73747;SDS011;62056;52.130;5.428;2023-09-19T02:56:31;5.00;;;2.90;;
73747;SDS011;62056;52.130;5.428;2023-09-19T02:58:58;8.27;;;2.20;;
73747;SDS011;62056;52.130;5.428;2023-09-19T03:01:27;7.93;;;1.75;;
73747;SDS011;62056;52.130;5.428;2023-09-19T03:03:57;11.03;;;3.23;;
73747;SDS011;62056;52.130;5.428;2023-09-19T03:06:24;7.43;;;2.58;;
73747;SDS011;62056;52.130;5.428;2023-09-19T03:08:53;13.48;;;4.00;;
73747;SDS011;62056;52.130;5.428;2023-09-19T03:11:20;9.00;;;4.80;;
73747;SDS011;62056;52.130;5.428;2023-09-19T03:13:52;14.57;;;7.80;;
73747;SDS011;62056;52.130;5.428;2023-09-19T03:16:20;15.37;;;10.53;;
73747;SDS011;62056;52.130;5.428;2023-09-19T03:18:48;7.95;;;4.22;;
73747;SDS011;62056;52.130;5.428;2023-09-19T03:21:15;10.63;;;3.85;;
73747;SDS011;62056;52.130;5.428;2023-09-19T03:23:43;7.78;;;3.78;;
73747;SDS011;62056;52.130;5.428;2023-09-19T03:26:12;5.53;;;3.67;;
73747;SDS011;62056;52.130;5.428;2023-09-19T03:28:40;5.17;;;3.23;;
73747;SDS011;62056;52.130;5.428;2023-09-19T03:31:09;6.07;;;3.13;;
73747;SDS011;62056;52.130;5.428;2023-09-19T03:33:37;6.30;;;2.95;;
73747;SDS011;62056;52.130;5.428;2023-09-19T03:36:04;9.38;;;5.50;;
73747;SDS011;62056;52.130;5.428;2023-09-19T03:38:32;13.18;;;4.32;;
73747;SDS011;62056;52.130;5.428;2023-09-19T03:41:01;9.13;;;3.33;;
73747;SDS011;62056;52.130;5.428;2023-09-19T03:43:28;7.88;;;3.50;;
73747;SDS011;62056;52.130;5.428;2023-09-19T03:45:55;8.75;;;3.33;;
73747;SDS011;62056;52.130;5.428;2023-09-19T03:48:22;6.75;;;2.63;;
73747;SDS011;62056;52.130;5.428;2023-09-19T03:50:49;3.40;;;2.10;;
73747;SDS011;62056;52.130;5.428;2023-09-19T03:53:16;5.20;;;1.30;;
73747;SDS011;62056;52.130;5.428;2023-09-19T03:55:44;8.40;;;2.45;;
73747;SDS011;62056;52.130;5.428;2023-09-19T03:58:12;8.35;;;2.20;;
73747;SDS011;62056;52.130;5.428;2023-09-19T04:00:40;11.00;;;4.70;;
73747;SDS011;62056;52.130;5.428;2023-09-19T04:03:07;7.43;;;2.63;;
73747;SDS011;62056;52.130;5.428;2023-09-19T04:05:34;12.07;;;5.70;;
73747;SDS011;62056;52.130;5.428;2023-09-19T04:08:01;12.75;;;2.70;;
73747;SDS011;62056;52.130;5.428;2023-09-19T04:10:27;15.60;;;6.18;;
73747;SDS011;62056;52.130;5.428;2023-09-19T04:12:56;6.57;;;3.38;;
73747;SDS011;62056;52.130;5.428;2023-09-19T04:15:23;11.25;;;3.53;;
73747;SDS011;62056;52.130;5.428;2023-09-19T04:17:50;14.07;;;3.63;;
73747;SDS011;62056;52.130;5.428;2023-09-19T04:20:18;9.48;;;3.15;;
73747;SDS011;62056;52.130;5.428;2023-09-19T04:23:00;15.10;;;9.60;;
73747;SDS011;62056;52.130;5.428;2023-09-19T04:25:26;11.43;;;2.28;;
73747;SDS011;62056;52.130;5.428;2023-09-19T04:27:54;5.13;;;2.78;;
73747;SDS011;62056;52.130;5.428;2023-09-19T04:30:21;4.03;;;2.07;;
73747;SDS011;62056;52.130;5.428;2023-09-19T04:32:47;6.88;;;3.22;;
73747;SDS011;62056;52.130;5.428;2023-09-19T04:35:18;9.00;;;2.17;;
73747;SDS011;62056;52.130;5.428;2023-09-19T04:37:45;8.63;;;1.70;;
73747;SDS011;62056;52.130;5.428;2023-09-19T04:40:11;6.65;;;2.00;;
73747;SDS011;62056;52.130;5.428;2023-09-19T04:42:40;8.57;;;1.50;;
73747;SDS011;62056;52.130;5.428;2023-09-19T04:45:09;6.80;;;1.80;;
73747;SDS011;62056;52.130;5.428;2023-09-19T04:47:40;6.93;;;2.38;;
73747;SDS011;62056;52.130;5.428;2023-09-19T04:50:07;9.05;;;2.20;;
73747;SDS011;62056;52.130;5.428;2023-09-19T04:52:41;7.97;;;2.33;;
73747;SDS011;62056;52.130;5.428;2023-09-19T04:55:09;7.77;;;2.33;;
73747;SDS011;62056;52.130;5.428;2023-09-19T04:57:47;7.40;;;2.58;;
73747;SDS011;62056;52.130;5.428;2023-09-19T05:00:16;7.38;;;3.03;;
73747;SDS011;62056;52.130;5.428;2023-09-19T05:02:46;7.00;;;3.30;;
73747;SDS011;62056;52.130;5.428;2023-09-19T05:05:15;6.07;;;2.13;;
73747;SDS011;62056;52.130;5.428;2023-09-19T05:07:43;8.53;;;2.97;;
73747;SDS011;62056;52.130;5.428;2023-09-19T05:10:10;6.53;;;3.17;;
73747;SDS011;62056;52.130;5.428;2023-09-19T05:12:39;6.70;;;4.07;;
73747;SDS011;62056;52.130;5.428;2023-09-19T05:15:06;8.23;;;3.00;;
73747;SDS011;62056;52.130;5.428;2023-09-19T05:17:33;6.40;;;2.40;;
73747;SDS011;62056;52.130;5.428;2023-09-19T05:20:01;14.00;;;2.10;;
73747;SDS011;62056;52.130;5.428;2023-09-19T05:22:41;4.43;;;1.83;;
73747;SDS011;62056;52.130;5.428;2023-09-19T05:25:09;5.00;;;1.35;;
73747;SDS011;62056;52.130;5.428;2023-09-19T05:27:37;5.47;;;1.80;;
73747;SDS011;62056;52.130;5.428;2023-09-19T05:30:04;6.70;;;1.45;;
73747;SDS011;62056;52.130;5.428;2023-09-19T05:32:31;15.43;;;1.77;;
73747;SDS011;62056;52.130;5.428;2023-09-19T05:34:58;7.20;;;1.27;;
73747;SDS011;62056;52.130;5.428;2023-09-19T05:37:24;10.27;;;1.75;;
73747;SDS011;62056;52.130;5.428;2023-09-19T05:39:52;9.38;;;1.00;;
73747;SDS011;62056;52.130;5.428;2023-09-19T05:42:22;8.27;;;1.60;;
73747;SDS011;62056;52.130;5.428;2023-09-19T05:44:49;7.67;;;1.50;;
73747;SDS011;62056;52.130;5.428;2023-09-19T05:47:15;3.28;;;0.90;;
73747;SDS011;62056;52.130;5.428;2023-09-19T05:49:43;4.32;;;1.40;;
73747;SDS011;62056;52.130;5.428;2023-09-19T05:52:10;8.95;;;1.85;;
73747;SDS011;62056;52.130;5.428;2023-09-19T05:54:37;5.60;;;1.58;;
73747;SDS011;62056;52.130;5.428;2023-09-19T05:57:04;10.70;;;2.67;;
73747;SDS011;62056;52.130;5.428;2023-09-19T05:59:31;9.32;;;2.00;;
73747;SDS011;62056;52.130;5.428;2023-09-19T06:01:58;3.70;;;1.83;;
73747;SDS011;62056;52.130;5.428;2023-09-19T06:04:25;5.88;;;2.30;;
73747;SDS011;62056;52.130;5.428;2023-09-19T06:06:52;8.35;;;2.38;;
73747;SDS011;62056;52.130;5.428;2023-09-19T06:09:19;7.37;;;2.10;;
73747;SDS011;62056;52.130;5.428;2023-09-19T06:11:49;7.97;;;3.22;;
73747;SDS011;62056;52.130;5.428;2023-09-19T06:14:16;9.50;;;2.35;;
73747;SDS011;62056;52.130;5.428;2023-09-19T06:16:44;9.75;;;1.83;;
73747;SDS011;62056;52.130;5.428;2023-09-19T06:19:12;6.32;;;1.58;;
73747;SDS011;62056;52.130;5.428;2023-09-19T06:21:39;6.97;;;1.40;;
73747;SDS011;62056;52.130;5.428;2023-09-19T06:24:05;4.15;;;1.23;;
73747;SDS011;62056;52.130;5.428;2023-09-19T06:26:33;7.32;;;1.05;;
73747;SDS011;62056;52.130;5.428;2023-09-19T06:29:00;6.55;;;1.25;;
73747;SDS011;62056;52.130;5.428;2023-09-19T06:31:26;6.05;;;1.67;;
73747;SDS011;62056;52.130;5.428;2023-09-19T06:33:53;7.20;;;1.20;;
73747;SDS011;62056;52.130;5.428;2023-09-19T06:36:20;7.97;;;1.35;;
73747;SDS011;62056;52.130;5.428;2023-09-19T06:38:48;9.30;;;1.35;;
73747;SDS011;62056;52.130;5.428;2023-09-19T06:41:15;7.53;;;1.77;;
73747;SDS011;62056;52.130;5.428;2023-09-19T06:43:43;4.70;;;1.17;;
73747;SDS011;62056;52.130;5.428;2023-09-19T06:46:10;6.57;;;2.47;;
73747;SDS011;62056;52.130;5.428;2023-09-19T06:48:39;13.45;;;1.45;;
73747;SDS011;62056;52.130;5.428;2023-09-19T06:51:06;7.53;;;1.70;;
73747;SDS011;62056;52.130;5.428;2023-09-19T06:53:34;5.88;;;1.30;;
73747;SDS011;62056;52.130;5.428;2023-09-19T06:56:02;6.53;;;1.60;;
73747;SDS011;62056;52.130;5.428;2023-09-19T06:58:29;7.33;;;1.37;;
73747;SDS011;62056;52.130;5.428;2023-09-19T07:00:58;6.28;;;2.00;;
73747;SDS011;62056;52.130;5.428;2023-09-19T07:03:25;8.60;;;1.40;;
73747;SDS011;62056;52.130;5.428;2023-09-19T07:05:55;3.50;;;1.08;;
73747;SDS011;62056;52.130;5.428;2023-09-19T07:08:22;6.97;;;1.20;;
73747;SDS011;62056;52.130;5.428;2023-09-19T07:10:49;6.60;;;0.90;;
73747;SDS011;62056;52.130;5.428;2023-09-19T07:13:16;4.55;;;1.38;;
73747;SDS011;62056;52.130;5.428;2023-09-19T07:15:46;5.90;;;1.40;;
73747;SDS011;62056;52.130;5.428;2023-09-19T07:18:13;6.45;;;1.30;;
73747;SDS011;62056;52.130;5.428;2023-09-19T07:20:46;10.43;;;1.55;;
73747;SDS011;62056;52.130;5.428;2023-09-19T07:23:19;10.20;;;1.63;;
73747;SDS011;62056;52.130;5.428;2023-09-19T07:25:49;7.55;;;1.70;;
73747;SDS011;62056;52.130;5.428;2023-09-19T07:28:17;5.65;;;1.52;;
73747;SDS011;62056;52.130;5.428;2023-09-19T07:30:45;9.02;;;2.28;;
73747;SDS011;62056;52.130;5.428;2023-09-19T07:33:14;6.90;;;1.55;;
73747;SDS011;62056;52.130;5.428;2023-09-19T07:35:45;8.07;;;1.37;;
73747;SDS011;62056;52.130;5.428;2023-09-19T07:38:14;5.38;;;1.38;;
73747;SDS011;62056;52.130;5.428;2023-09-19T07:40:42;6.07;;;1.67;;
73747;SDS011;62056;52.130;5.428;2023-09-19T07:43:09;4.05;;;1.38;;
73747;SDS011;62056;52.130;5.428;2023-09-19T07:45:36;10.80;;;1.60;;
73747;SDS011;62056;52.130;5.428;2023-09-19T07:48:03;9.50;;;1.47;;
73747;SDS011;62056;52.130;5.428;2023-09-19T07:50:40;8.52;;;2.10;;
73747;SDS011;62056;52.130;5.428;2023-09-19T07:53:10;6.85;;;1.40;;
73747;SDS011;62056;52.130;5.428;2023-09-19T07:55:39;6.85;;;1.77;;
73747;SDS011;62056;52.130;5.428;2023-09-19T07:58:19;4.80;;;1.58;;
73747;SDS011;62056;52.130;5.428;2023-09-19T08:01:04;8.40;;;1.80;;
73747;SDS011;62056;52.130;5.428;2023-09-19T08:04:10;4.72;;;1.48;;
73747;SDS011;62056;52.130;5.428;2023-09-19T08:06:53;8.20;;;2.35;;
73747;SDS011;62056;52.130;5.428;2023-09-19T08:09:26;9.48;;;1.83;;
73747;SDS011;62056;52.130;5.428;2023-09-19T08:11:56;7.07;;;2.08;;
73747;SDS011;62056;52.130;5.428;2023-09-19T08:14:23;4.20;;;1.23;;
73747;SDS011;62056;52.130;5.428;2023-09-19T08:16:55;6.63;;;1.30;;
73747;SDS011;62056;52.130;5.428;2023-09-19T08:19:24;6.32;;;1.70;;
73747;SDS011;62056;52.130;5.428;2023-09-19T08:21:58;8.25;;;1.85;;
73747;SDS011;62056;52.130;5.428;2023-09-19T08:28:22;9.70;;;1.30;;
73747;SDS011;62056;52.130;5.428;2023-09-19T08:30:51;7.10;;;2.13;;
73747;SDS011;62056;52.130;5.428;2023-09-19T08:33:19;6.75;;;2.00;;
73747;SDS011;62056;52.130;5.428;2023-09-19T08:35:46;10.90;;;1.90;;
73747;SDS011;62056;52.130;5.428;2023-09-19T08:41:19;10.40;;;1.77;;
73747;SDS011;62056;52.130;5.428;2023-09-19T08:44:02;7.53;;;1.90;;
73747;SDS011;62056;52.130;5.428;2023-09-19T08:46:45;5.00;;;1.08;;
73747;SDS011;62056;52.130;5.428;2023-09-19T08:49:39;7.85;;;1.90;;
73747;SDS011;62056;52.130;5.428;2023-09-19T08:52:32;7.03;;;1.80;;
73747;SDS011;62056;52.130;5.428;2023-09-19T08:55:17;6.33;;;2.30;;
73747;SDS011;62056;52.130;5.428;2023-09-19T08:58:06;3.05;;;1.40;;
73747;SDS011;62056;52.130;5.428;2023-09-19T09:00:50;12.13;;;2.10;;
73747;SDS011;62056;52.130;5.428;2023-09-19T09:03:33;6.30;;;2.33;;
73747;SDS011;62056;52.130;5.428;2023-09-19T09:06:04;7.15;;;2.53;;
73747;SDS011;62056;52.130;5.428;2023-09-19T09:08:36;9.90;;;1.23;;
73747;SDS011;62056;52.130;5.428;2023-09-19T09:11:08;6.90;;;1.27;;
73747;SDS011;62056;52.130;5.428;2023-09-19T09:13:38;10.50;;;1.85;;
73747;SDS011;62056;52.130;5.428;2023-09-19T09:16:08;7.18;;;2.10;;
73747;SDS011;62056;52.130;5.428;2023-09-19T09:18:36;7.82;;;2.67;;
73747;SDS011;62056;52.130;5.428;2023-09-19T09:21:06;10.67;;;2.13;;
73747;SDS011;62056;52.130;5.428;2023-09-19T09:23:33;6.35;;;1.40;;
73747;SDS011;62056;52.130;5.428;2023-09-19T09:26:04;6.20;;;1.75;;
73747;SDS011;62056;52.130;5.428;2023-09-19T09:28:33;8.98;;;2.60;;
73747;SDS011;62056;52.130;5.428;2023-09-19T09:31:02;10.50;;;2.50;;
73747;SDS011;62056;52.130;5.428;2023-09-19T09:33:34;4.53;;;1.60;;
73747;SDS011;62056;52.130;5.428;2023-09-19T09:36:05;7.65;;;1.73;;
73747;SDS011;62056;52.130;5.428;2023-09-19T09:38:44;8.25;;;1.85;;
73747;SDS011;62056;52.130;5.428;2023-09-19T09:41:12;5.80;;;1.30;;
73747;SDS011;62056;52.130;5.428;2023-09-19T09:43:53;4.93;;;1.80;;
73747;SDS011;62056;52.130;5.428;2023-09-19T09:46:29;7.43;;;1.70;;
73747;SDS011;62056;52.130;5.428;2023-09-19T09:51:48;9.77;;;1.85;;
73747;SDS011;62056;52.130;5.428;2023-09-19T09:54:37;7.65;;;1.85;;
73747;SDS011;62056;52.130;5.428;2023-09-19T09:57:24;5.93;;;1.55;;
73747;SDS011;62056;52.130;5.428;2023-09-19T09:59:56;13.57;;;2.23;;
73747;SDS011;62056;52.130;5.428;2023-09-19T10:02:43;6.75;;;2.10;;
73747;SDS011;62056;52.130;5.428;2023-09-19T10:05:17;9.10;;;1.77;;
73747;SDS011;62056;52.130;5.428;2023-09-19T10:07:54;11.43;;;1.92;;
73747;SDS011;62056;52.130;5.428;2023-09-19T10:10:36;7.47;;;1.80;;
73747;SDS011;62056;52.130;5.428;2023-09-19T10:13:12;6.77;;;1.90;;
73747;SDS011;62056;52.130;5.428;2023-09-19T10:15:42;8.93;;;1.30;;
73747;SDS011;62056;52.130;5.428;2023-09-19T10:18:21;9.15;;;1.73;;
73747;SDS011;62056;52.130;5.428;2023-09-19T10:20:49;7.57;;;1.30;;
73747;SDS011;62056;52.130;5.428;2023-09-19T10:23:18;8.02;;;2.00;;
73747;SDS011;62056;52.130;5.428;2023-09-19T10:25:50;6.50;;;1.30;;
73747;SDS011;62056;52.130;5.428;2023-09-19T10:28:19;8.52;;;1.70;;
73747;SDS011;62056;52.130;5.428;2023-09-19T10:30:49;3.50;;;1.80;;
73747;SDS011;62056;52.130;5.428;2023-09-19T10:33:18;5.35;;;1.30;;
73747;SDS011;62056;52.130;5.428;2023-09-19T10:35:48;10.00;;;1.98;;
73747;SDS011;62056;52.130;5.428;2023-09-19T10:38:18;7.97;;;1.50;;
73747;SDS011;62056;52.130;5.428;2023-09-19T10:40:50;3.38;;;1.10;;
73747;SDS011;62056;52.130;5.428;2023-09-19T10:43:25;6.00;;;1.65;;
73747;SDS011;62056;52.130;5.428;2023-09-19T10:46:03;8.45;;;1.83;;
73747;SDS011;62056;52.130;5.428;2023-09-19T10:48:36;3.22;;;1.10;;
73747;SDS011;62056;52.130;5.428;2023-09-19T10:51:07;10.17;;;1.83;;
73747;SDS011;62056;52.130;5.428;2023-09-19T10:53:47;8.55;;;2.50;;
73747;SDS011;62056;52.130;5.428;2023-09-19T10:56:24;8.50;;;1.80;;
73747;SDS011;62056;52.130;5.428;2023-09-19T10:59:08;5.30;;;1.55;;
73747;SDS011;62056;52.130;5.428;2023-09-19T11:01:41;8.30;;;1.58;;
73747;SDS011;62056;52.130;5.428;2023-09-19T11:04:23;7.03;;;1.30;;
73747;SDS011;62056;52.130;5.428;2023-09-19T11:09:51;3.80;;;1.42;;
73747;SDS011;62056;52.130;5.428;2023-09-19T11:16:02;8.07;;;2.17;;
73747;SDS011;62056;52.130;5.428;2023-09-19T11:27:08;4.80;;;1.05;;
73747;SDS011;62056;52.130;5.428;2023-09-19T11:29:37;10.20;;;1.85;;
73747;SDS011;62056;52.130;5.428;2023-09-19T11:32:05;6.00;;;1.17;;
73747;SDS011;62056;52.130;5.428;2023-09-19T11:37:02;6.78;;;1.88;;
73747;SDS011;62056;52.130;5.428;2023-09-19T11:39:40;7.90;;;1.48;;
73747;SDS011;62056;52.130;5.428;2023-09-19T11:42:47;5.53;;;1.27;;
73747;SDS011;62056;52.130;5.428;2023-09-19T11:48:23;5.05;;;1.38;;
73747;SDS011;62056;52.130;5.428;2023-09-19T11:50:53;4.15;;;1.10;;
73747;SDS011;62056;52.130;5.428;2023-09-19T11:53:21;5.32;;;1.35;;
73747;SDS011;62056;52.130;5.428;2023-09-19T11:55:49;5.22;;;0.80;;
73747;SDS011;62056;52.130;5.428;2023-09-19T11:58:17;4.00;;;1.60;;
73747;SDS011;62056;52.130;5.428;2023-09-19T12:00:46;3.25;;;0.93;;
73747;SDS011;62056;52.130;5.428;2023-09-19T12:03:21;5.95;;;1.40;;
73747;SDS011;62056;52.130;5.428;2023-09-19T12:05:48;3.35;;;1.35;;
73747;SDS011;62056;52.130;5.428;2023-09-19T12:08:14;4.55;;;1.25;;
73747;SDS011;62056;52.130;5.428;2023-09-19T12:10:48;4.37;;;1.20;;
73747;SDS011;62056;52.130;5.428;2023-09-19T12:13:21;5.47;;;1.10;;
73747;SDS011;62056;52.130;5.428;2023-09-19T12:15:48;6.57;;;1.75;;
73747;SDS011;62056;52.130;5.428;2023-09-19T12:18:28;5.32;;;1.17;;
73747;SDS011;62056;52.130;5.428;2023-09-19T12:21:00;3.13;;;0.70;;
73747;SDS011;62056;52.130;5.428;2023-09-19T12:23:31;2.87;;;0.73;;
73747;SDS011;62056;52.130;5.428;2023-09-19T12:26:01;4.32;;;0.80;;
73747;SDS011;62056;52.130;5.428;2023-09-19T12:28:41;4.25;;;0.65;;
73747;SDS011;62056;52.130;5.428;2023-09-19T12:31:11;2.50;;;0.80;;
73747;SDS011;62056;52.130;5.428;2023-09-19T12:33:39;4.78;;;0.77;;
73747;SDS011;62056;52.130;5.428;2023-09-19T12:36:19;1.57;;;0.60;;
73747;SDS011;62056;52.130;5.428;2023-09-19T12:38:58;2.20;;;0.80;;
73747;SDS011;62056;52.130;5.428;2023-09-19T12:41:35;2.75;;;1.15;;
73747;SDS011;62056;52.130;5.428;2023-09-19T12:44:04;2.38;;;0.90;;
73747;SDS011;62056;52.130;5.428;2023-09-19T12:46:36;4.68;;;1.45;;
73747;SDS011;62056;52.130;5.428;2023-09-19T12:49:21;5.03;;;1.00;;
73747;SDS011;62056;52.130;5.428;2023-09-19T12:51:55;3.13;;;0.98;;
73747;SDS011;62056;52.130;5.428;2023-09-19T12:54:36;4.00;;;0.80;;
73747;SDS011;62056;52.130;5.428;2023-09-19T12:57:06;5.15;;;1.00;;
73747;SDS011;62056;52.130;5.428;2023-09-19T12:59:33;3.50;;;1.10;;
73747;SDS011;62056;52.130;5.428;2023-09-19T13:02:05;4.77;;;1.43;;
73747;SDS011;62056;52.130;5.428;2023-09-19T13:04:33;2.50;;;0.80;;
73747;SDS011;62056;52.130;5.428;2023-09-19T13:07:06;2.67;;;0.82;;
73747;SDS011;62056;52.130;5.428;2023-09-19T13:09:35;6.20;;;0.80;;
73747;SDS011;62056;52.130;5.428;2023-09-19T13:12:05;3.72;;;0.70;;
73747;SDS011;62056;52.130;5.428;2023-09-19T13:15:10;3.93;;;0.87;;
73747;SDS011;62056;52.130;5.428;2023-09-19T13:17:44;5.75;;;0.88;;
73747;SDS011;62056;52.130;5.428;2023-09-19T13:20:23;4.55;;;0.93;;
73747;SDS011;62056;52.130;5.428;2023-09-19T13:23:01;3.60;;;0.90;;
73747;SDS011;62056;52.130;5.428;2023-09-19T13:25:40;3.53;;;0.98;;
73747;SDS011;62056;52.130;5.428;2023-09-19T13:28:20;4.27;;;1.07;;
73747;SDS011;62056;52.130;5.428;2023-09-19T13:30:49;6.18;;;1.00;;
73747;SDS011;62056;52.130;5.428;2023-09-19T13:33:16;5.03;;;1.13;;
73747;SDS011;62056;52.130;5.428;2023-09-19T13:35:47;3.33;;;0.90;;
73747;SDS011;62056;52.130;5.428;2023-09-19T13:38:18;3.38;;;0.80;;
73747;SDS011;62056;52.130;5.428;2023-09-19T13:40:48;4.87;;;1.00;;
73747;SDS011;62056;52.130;5.428;2023-09-19T13:43:19;4.88;;;0.88;;
73747;SDS011;62056;52.130;5.428;2023-09-19T13:45:48;2.97;;;1.00;;
73747;SDS011;62056;52.130;5.428;2023-09-19T13:48:18;2.75;;;0.80;;
73747;SDS011;62056;52.130;5.428;2023-09-19T13:50:50;2.90;;;1.05;;
73747;SDS011;62056;52.130;5.428;2023-09-19T13:53:19;2.53;;;1.03;;
73747;SDS011;62056;52.130;5.428;2023-09-19T13:55:46;2.20;;;0.90;;
73747;SDS011;62056;52.130;5.428;2023-09-19T13:58:15;2.28;;;1.02;;
73747;SDS011;62056;52.130;5.428;2023-09-19T14:00:42;5.82;;;0.80;;
73747;SDS011;62056;52.130;5.428;2023-09-19T14:03:11;3.67;;;0.80;;
73747;SDS011;62056;52.130;5.428;2023-09-19T14:05:42;2.47;;;0.90;;
73747;SDS011;62056;52.130;5.428;2023-09-19T14:08:10;1.63;;;0.57;;
73747;SDS011;62056;52.130;5.428;2023-09-19T14:10:39;1.17;;;0.70;;
73747;SDS011;62056;52.130;5.428;2023-09-19T14:13:06;5.13;;;0.82;;
73747;SDS011;62056;52.130;5.428;2023-09-19T14:15:32;2.75;;;0.68;;
73747;SDS011;62056;52.130;5.428;2023-09-19T14:18:05;1.40;;;0.60;;
73747;SDS011;62056;52.130;5.428;2023-09-19T14:20:32;3.47;;;0.95;;
73747;SDS011;62056;52.130;5.428;2023-09-19T14:22:59;6.78;;;0.85;;
73747;SDS011;62056;52.130;5.428;2023-09-19T14:25:27;2.80;;;0.70;;
73747;SDS011;62056;52.130;5.428;2023-09-19T14:27:59;2.10;;;0.88;;
73747;SDS011;62056;52.130;5.428;2023-09-19T14:30:26;3.30;;;0.80;;
73747;SDS011;62056;52.130;5.428;2023-09-19T14:32:54;5.10;;;2.85;;
73747;SDS011;62056;52.130;5.428;2023-09-19T14:35:21;3.80;;;1.27;;
73747;SDS011;62056;52.130;5.428;2023-09-19T14:37:49;2.08;;;1.10;;
73747;SDS011;62056;52.130;5.428;2023-09-19T14:40:16;3.17;;;1.00;;
73747;SDS011;62056;52.130;5.428;2023-09-19T14:42:43;4.20;;;1.30;;
73747;SDS011;62056;52.130;5.428;2023-09-19T14:45:18;3.78;;;0.95;;
73747;SDS011;62056;52.130;5.428;2023-09-19T14:47:48;2.80;;;1.10;;
73747;SDS011;62056;52.130;5.428;2023-09-19T14:50:19;4.18;;;1.60;;
73747;SDS011;62056;52.130;5.428;2023-09-19T14:52:47;5.25;;;1.55;;
73747;SDS011;62056;52.130;5.428;2023-09-19T14:55:16;7.93;;;1.10;;
73747;SDS011;62056;52.130;5.428;2023-09-19T14:57:43;3.15;;;1.45;;
73747;SDS011;62056;52.130;5.428;2023-09-19T15:00:12;3.95;;;0.88;;
73747;SDS011;62056;52.130;5.428;2023-09-19T15:02:40;4.70;;;1.25;;
73747;SDS011;62056;52.130;5.428;2023-09-19T15:05:07;3.90;;;1.05;;
73747;SDS011;62056;52.130;5.428;2023-09-19T15:07:35;3.33;;;1.00;;
73747;SDS011;62056;52.130;5.428;2023-09-19T15:10:05;4.70;;;0.90;;
73747;SDS011;62056;52.130;5.428;2023-09-19T15:12:37;3.25;;;1.25;;
73747;SDS011;62056;52.130;5.428;2023-09-19T15:15:06;5.68;;;1.15;;
73747;SDS011;62056;52.130;5.428;2023-09-19T15:17:36;2.72;;;1.10;;
73747;SDS011;62056;52.130;5.428;2023-09-19T15:20:04;5.00;;;1.57;;
73747;SDS011;62056;52.130;5.428;2023-09-19T15:22:35;4.03;;;1.25;;
73747;SDS011;62056;52.130;5.428;2023-09-19T15:25:02;3.60;;;1.50;;
73747;SDS011;62056;52.130;5.428;2023-09-19T15:27:30;4.70;;;1.35;;
73747;SDS011;62056;52.130;5.428;2023-09-19T15:29:59;2.40;;;1.00;;
73747;SDS011;62056;52.130;5.428;2023-09-19T15:32:27;5.13;;;1.80;;
73747;SDS011;62056;52.130;5.428;2023-09-19T15:34:54;4.32;;;1.20;;
73747;SDS011;62056;52.130;5.428;2023-09-19T15:37:21;4.65;;;0.95;;
73747;SDS011;62056;52.130;5.428;2023-09-19T15:39:48;4.15;;;1.65;;
73747;SDS011;62056;52.130;5.428;2023-09-19T15:42:16;2.47;;;1.05;;
73747;SDS011;62056;52.130;5.428;2023-09-19T15:44:42;2.30;;;1.20;;
73747;SDS011;62056;52.130;5.428;2023-09-19T15:47:10;4.43;;;1.48;;
73747;SDS011;62056;52.130;5.428;2023-09-19T15:49:37;7.63;;;1.58;;
73747;SDS011;62056;52.130;5.428;2023-09-19T15:52:04;3.67;;;1.10;;
73747;SDS011;62056;52.130;5.428;2023-09-19T15:54:31;2.60;;;1.45;;
73747;SDS011;62056;52.130;5.428;2023-09-19T15:56:59;3.63;;;1.53;;
73747;SDS011;62056;52.130;5.428;2023-09-19T15:59:26;3.83;;;1.30;;